sensor_id;sensor_type;location;lat;lon;timestamp;pressure;altitude;pressure_sealevel;temperature;humidity
13800;BME280;6971;50.028;9.258;2023-05-01T00:02:01;99520.00;;;10.92;66.01
13800;BME280;6971;50.028;9.258;2023-05-01T00:07:02;99513.88;;;10.91;65.86
13800;BME280;6971;50.028;9.258;2023-05-01T00:12:03;99514.72;;;10.92;65.59
13800;BME280;6971;50.028;9.258;2023-05-01T00:17:04;99500.94;;;10.87;65.75
13800;BME280;6971;50.028;9.258;2023-05-01T00:22:05;99499.66;;;10.78;66.14
13800;BME280;6971;50.028;9.258;2023-05-01T00:27:06;99497.44;;;10.70;66.77
13800;BME280;6971;50.028;9.258;2023-05-01T00:32:07;99500.22;;;10.67;66.14
13800;BME280;6971;50.028;9.258;2023-05-01T00:37:09;99490.03;;;10.61;66.45
13800;BME280;6971;50.028;9.258;2023-05-01T00:42:10;99480.66;;;10.55;66.29
13800;BME280;6971;50.028;9.258;2023-05-01T00:47:11;99474.59;;;10.53;66.51
13800;BME280;6971;50.028;9.258;2023-05-01T00:52:12;99468.72;;;10.48;66.48
13800;BME280;6971;50.028;9.258;2023-05-01T00:57:13;99466.47;;;10.40;66.82
13800;BME280;6971;50.028;9.258;2023-05-01T01:02:15;99454.31;;;10.37;67.02
13800;BME280;6971;50.028;9.258;2023-05-01T01:07:41;99449.69;;;10.25;67.89
13800;BME280;6971;50.028;9.258;2023-05-01T01:13:01;99444.41;;;10.25;67.43
13800;BME280;6971;50.028;9.258;2023-05-01T01:18:10;99436.00;;;10.18;67.69
13800;BME280;6971;50.028;9.258;2023-05-01T01:23:33;99428.25;;;10.15;67.92
13800;BME280;6971;50.028;9.258;2023-05-01T01:34:33;99410.97;;;10.09;67.50
13800;BME280;6971;50.028;9.258;2023-05-01T01:39:42;99421.69;;;10.06;66.96
13800;BME280;6971;50.028;9.258;2023-05-01T01:44:51;99405.88;;;10.06;67.39
13800;BME280;6971;50.028;9.258;2023-05-01T01:49:55;99405.50;;;9.96;68.81
13800;BME280;6971;50.028;9.258;2023-05-01T01:55:01;99410.91;;;9.93;68.36
13800;BME280;6971;50.028;9.258;2023-05-01T02:00:09;99400.09;;;9.99;67.37
13800;BME280;6971;50.028;9.258;2023-05-01T02:05:13;99395.06;;;9.95;67.50
13800;BME280;6971;50.028;9.258;2023-05-01T02:10:15;99388.97;;;9.94;67.17
13800;BME280;6971;50.028;9.258;2023-05-01T02:15:17;99380.91;;;9.79;67.78
13800;BME280;6971;50.028;9.258;2023-05-01T02:20:21;99384.06;;;9.86;67.71
13800;BME280;6971;50.028;9.258;2023-05-01T02:25:21;99378.66;;;9.89;67.28
13800;BME280;6971;50.028;9.258;2023-05-01T02:30:22;99380.06;;;9.79;67.39
13800;BME280;6971;50.028;9.258;2023-05-01T02:35:23;99375.34;;;9.86;67.52
13800;BME280;6971;50.028;9.258;2023-05-01T02:40:24;99372.25;;;9.77;67.52
13800;BME280;6971;50.028;9.258;2023-05-01T02:45:29;99367.66;;;9.81;67.28
13800;BME280;6971;50.028;9.258;2023-05-01T02:50:32;99368.34;;;9.85;66.92
13800;BME280;6971;50.028;9.258;2023-05-01T02:55:34;99353.75;;;9.79;66.83
13800;BME280;6971;50.028;9.258;2023-05-01T03:00:35;99350.88;;;9.66;66.88
13800;BME280;6971;50.028;9.258;2023-05-01T03:05:36;99349.94;;;9.67;66.95
13800;BME280;6971;50.028;9.258;2023-05-01T03:10:40;99347.94;;;9.72;66.87
13800;BME280;6971;50.028;9.258;2023-05-01T03:15:43;99350.72;;;9.69;66.70
13800;BME280;6971;50.028;9.258;2023-05-01T03:20:54;99344.38;;;9.73;66.50
13800;BME280;6971;50.028;9.258;2023-05-01T03:25:56;99340.06;;;9.72;66.47
13800;BME280;6971;50.028;9.258;2023-05-01T03:30:57;99333.84;;;9.73;66.21
13800;BME280;6971;50.028;9.258;2023-05-01T03:35:59;99339.28;;;9.70;66.28
13800;BME280;6971;50.028;9.258;2023-05-01T03:41:04;99339.28;;;9.70;66.13
13800;BME280;6971;50.028;9.258;2023-05-01T03:46:06;99348.19;;;9.68;66.27
13800;BME280;6971;50.028;9.258;2023-05-01T03:51:07;99344.69;;;9.67;66.26
13800;BME280;6971;50.028;9.258;2023-05-01T03:56:10;99338.06;;;9.60;67.67
13800;BME280;6971;50.028;9.258;2023-05-01T04:01:11;99338.69;;;9.47;68.73
13800;BME280;6971;50.028;9.258;2023-05-01T04:06:12;99346.97;;;9.57;68.59
13800;BME280;6971;50.028;9.258;2023-05-01T04:11:13;99344.41;;;9.38;70.36
13800;BME280;6971;50.028;9.258;2023-05-01T04:16:14;99341.16;;;9.68;66.56
13800;BME280;6971;50.028;9.258;2023-05-01T04:21:14;99340.97;;;9.53;68.13
13800;BME280;6971;50.028;9.258;2023-05-01T04:26:17;99346.63;;;9.63;67.24
13800;BME280;6971;50.028;9.258;2023-05-01T04:31:18;99338.19;;;9.74;66.20
13800;BME280;6971;50.028;9.258;2023-05-01T04:36:18;99342.13;;;9.83;65.73
13800;BME280;6971;50.028;9.258;2023-05-01T04:41:19;99340.25;;;9.85;65.01
13800;BME280;6971;50.028;9.258;2023-05-01T04:46:20;99338.63;;;9.83;65.15
13800;BME280;6971;50.028;9.258;2023-05-01T04:51:21;99335.84;;;9.86;65.11
13800;BME280;6971;50.028;9.258;2023-05-01T04:56:24;99340.63;;;9.95;64.98
13800;BME280;6971;50.028;9.258;2023-05-01T05:01:25;99344.47;;;10.05;64.07
13800;BME280;6971;50.028;9.258;2023-05-01T05:06:25;99334.59;;;10.09;64.23
13800;BME280;6971;50.028;9.258;2023-05-01T05:11:25;99339.78;;;10.11;64.18
13800;BME280;6971;50.028;9.258;2023-05-01T05:16:26;99336.66;;;10.20;64.76
13800;BME280;6971;50.028;9.258;2023-05-01T05:21:27;99334.22;;;10.17;64.96
13800;BME280;6971;50.028;9.258;2023-05-01T05:26:27;99327.88;;;10.37;63.88
13800;BME280;6971;50.028;9.258;2023-05-01T05:31:28;99334.59;;;10.43;63.60
13800;BME280;6971;50.028;9.258;2023-05-01T05:36:28;99329.16;;;10.46;62.74
13800;BME280;6971;50.028;9.258;2023-05-01T05:41:30;99326.44;;;10.48;63.16
13800;BME280;6971;50.028;9.258;2023-05-01T05:46:30;99313.34;;;10.46;62.98
13800;BME280;6971;50.028;9.258;2023-05-01T05:51:30;99321.38;;;10.61;62.62
13800;BME280;6971;50.028;9.258;2023-05-01T05:56:31;99315.72;;;10.67;62.20
13800;BME280;6971;50.028;9.258;2023-05-01T06:01:31;99315.72;;;10.67;61.82
13800;BME280;6971;50.028;9.258;2023-05-01T06:06:32;99306.94;;;10.82;61.97
13800;BME280;6971;50.028;9.258;2023-05-01T06:11:33;99305.41;;;10.94;61.60
13800;BME280;6971;50.028;9.258;2023-05-01T06:16:34;99308.25;;;11.06;61.13
13800;BME280;6971;50.028;9.258;2023-05-01T06:21:34;99309.16;;;11.21;61.08
13800;BME280;6971;50.028;9.258;2023-05-01T06:26:35;99301.47;;;11.32;60.71
13800;BME280;6971;50.028;9.258;2023-05-01T06:31:35;99300.44;;;11.35;60.40
13800;BME280;6971;50.028;9.258;2023-05-01T06:36:36;99308.84;;;11.42;59.66
13800;BME280;6971;50.028;9.258;2023-05-01T06:41:36;99303.41;;;11.59;60.06
13800;BME280;6971;50.028;9.258;2023-05-01T06:46:37;99308.59;;;11.61;59.99
13800;BME280;6971;50.028;9.258;2023-05-01T06:51:38;99306.59;;;11.79;59.53
13800;BME280;6971;50.028;9.258;2023-05-01T06:56:38;99302.75;;;11.85;59.40
13800;BME280;6971;50.028;9.258;2023-05-01T07:01:39;99309.28;;;11.94;59.31
13800;BME280;6971;50.028;9.258;2023-05-01T07:06:39;99295.09;;;12.24;58.23
13800;BME280;6971;50.028;9.258;2023-05-01T07:11:40;99285.03;;;12.58;57.41
13800;BME280;6971;50.028;9.258;2023-05-01T07:16:41;99290.75;;;12.92;56.30
13800;BME280;6971;50.028;9.258;2023-05-01T07:21:41;99282.81;;;12.92;55.96
13800;BME280;6971;50.028;9.258;2023-05-01T07:26:42;99293.47;;;13.18;55.72
13800;BME280;6971;50.028;9.258;2023-05-01T07:31:43;99278.84;;;13.26;55.86
13800;BME280;6971;50.028;9.258;2023-05-01T07:36:43;99282.66;;;13.22;55.46
13800;BME280;6971;50.028;9.258;2023-05-01T07:41:43;99286.91;;;13.37;55.01
13800;BME280;6971;50.028;9.258;2023-05-01T07:46:44;99279.91;;;13.23;55.13
13800;BME280;6971;50.028;9.258;2023-05-01T07:51:46;99284.78;;;13.42;55.03
13800;BME280;6971;50.028;9.258;2023-05-01T07:56:48;99286.19;;;13.61;55.19
13800;BME280;6971;50.028;9.258;2023-05-01T08:01:49;99284.81;;;13.94;54.59
13800;BME280;6971;50.028;9.258;2023-05-01T08:06:49;99290.91;;;14.21;53.46
13800;BME280;6971;50.028;9.258;2023-05-01T08:11:50;99287.88;;;14.39;53.37
13800;BME280;6971;50.028;9.258;2023-05-01T08:16:50;99290.75;;;13.98;54.34
13800;BME280;6971;50.028;9.258;2023-05-01T08:21:54;99295.53;;;13.93;54.77
13800;BME280;6971;50.028;9.258;2023-05-01T08:26:54;99293.78;;;14.18;54.30
13800;BME280;6971;50.028;9.258;2023-05-01T08:31:56;99295.72;;;14.53;54.07
13800;BME280;6971;50.028;9.258;2023-05-01T08:36:58;99292.47;;;14.61;54.11
13800;BME280;6971;50.028;9.258;2023-05-01T08:41:58;99289.72;;;14.38;54.06
13800;BME280;6971;50.028;9.258;2023-05-01T08:47:14;99289.00;;;14.85;53.72
13800;BME280;6971;50.028;9.258;2023-05-01T08:52:14;99281.66;;;15.13;53.23
13800;BME280;6971;50.028;9.258;2023-05-01T08:57:15;99276.06;;;15.05;53.02
13800;BME280;6971;50.028;9.258;2023-05-01T09:02:16;99273.38;;;15.63;51.37
13800;BME280;6971;50.028;9.258;2023-05-01T09:07:17;99279.56;;;15.64;51.43
13800;BME280;6971;50.028;9.258;2023-05-01T09:12:24;99278.47;;;15.08;52.77
13800;BME280;6971;50.028;9.258;2023-05-01T09:17:24;99269.06;;;15.51;52.05
13800;BME280;6971;50.028;9.258;2023-05-01T09:22:25;99279.44;;;15.65;52.10
13800;BME280;6971;50.028;9.258;2023-05-01T09:27:26;99275.56;;;15.81;52.23
13800;BME280;6971;50.028;9.258;2023-05-01T09:32:26;99275.47;;;15.71;50.96
13800;BME280;6971;50.028;9.258;2023-05-01T09:37:29;99273.69;;;16.06;50.51
13800;BME280;6971;50.028;9.258;2023-05-01T09:42:30;99276.41;;;15.59;50.12
13800;BME280;6971;50.028;9.258;2023-05-01T09:47:31;99265.06;;;15.91;50.93
13800;BME280;6971;50.028;9.258;2023-05-01T09:52:33;99268.13;;;15.86;51.17
13800;BME280;6971;50.028;9.258;2023-05-01T09:57:34;99270.38;;;15.91;49.11
13800;BME280;6971;50.028;9.258;2023-05-01T10:02:35;99265.78;;;15.70;51.07
13800;BME280;6971;50.028;9.258;2023-05-01T10:07:36;99262.06;;;15.84;48.52
13800;BME280;6971;50.028;9.258;2023-05-01T10:12:36;99270.03;;;15.84;49.63
13800;BME280;6971;50.028;9.258;2023-05-01T10:17:38;99263.16;;;15.93;49.42
13800;BME280;6971;50.028;9.258;2023-05-01T10:22:39;99266.91;;;16.13;47.81
13800;BME280;6971;50.028;9.258;2023-05-01T10:27:40;99267.25;;;15.74;49.10
13800;BME280;6971;50.028;9.258;2023-05-01T10:32:41;99265.41;;;15.40;49.93
13800;BME280;6971;50.028;9.258;2023-05-01T10:37:58;99276.31;;;15.83;51.10
13800;BME280;6971;50.028;9.258;2023-05-01T10:43:28;99266.41;;;15.51;53.02
13800;BME280;6971;50.028;9.258;2023-05-01T10:53:40;99275.19;;;15.40;49.19
13800;BME280;6971;50.028;9.258;2023-05-01T11:03:42;99257.78;;;15.24;53.45
13800;BME280;6971;50.028;9.258;2023-05-01T11:08:43;99267.69;;;15.34;56.60
13800;BME280;6971;50.028;9.258;2023-05-01T11:14:03;99262.03;;;14.42;52.82
13800;BME280;6971;50.028;9.258;2023-05-01T11:19:05;99254.28;;;14.88;53.99
13800;BME280;6971;50.028;9.258;2023-05-01T11:24:06;99254.41;;;14.86;52.93
13800;BME280;6971;50.028;9.258;2023-05-01T11:29:08;99262.53;;;14.96;53.92
13800;BME280;6971;50.028;9.258;2023-05-01T11:34:09;99263.72;;;14.92;53.69
13800;BME280;6971;50.028;9.258;2023-05-01T11:39:13;99258.03;;;14.85;53.48
13800;BME280;6971;50.028;9.258;2023-05-01T11:44:16;99255.66;;;14.69;53.98
13800;BME280;6971;50.028;9.258;2023-05-01T11:49:25;99260.97;;;14.94;53.40
13800;BME280;6971;50.028;9.258;2023-05-01T11:54:26;99254.72;;;14.57;53.62
13800;BME280;6971;50.028;9.258;2023-05-01T11:59:27;99250.66;;;14.78;52.62
13800;BME280;6971;50.028;9.258;2023-05-01T12:04:27;99245.16;;;14.43;55.37
13800;BME280;6971;50.028;9.258;2023-05-01T12:09:28;99245.03;;;14.45;54.13
13800;BME280;6971;50.028;9.258;2023-05-01T12:14:29;99252.53;;;14.51;53.84
13800;BME280;6971;50.028;9.258;2023-05-01T12:19:29;99251.81;;;14.73;53.32
13800;BME280;6971;50.028;9.258;2023-05-01T12:24:30;99251.31;;;15.40;52.24
13800;BME280;6971;50.028;9.258;2023-05-01T12:29:40;99249.63;;;15.73;51.27
13800;BME280;6971;50.028;9.258;2023-05-01T12:34:41;99250.09;;;16.90;49.47
13800;BME280;6971;50.028;9.258;2023-05-01T12:39:42;99251.34;;;17.40;48.19
13800;BME280;6971;50.028;9.258;2023-05-01T12:44:43;99252.16;;;16.65;49.33
13800;BME280;6971;50.028;9.258;2023-05-01T12:49:44;99246.59;;;17.22;47.64
13800;BME280;6971;50.028;9.258;2023-05-01T12:54:44;99241.66;;;17.17;47.88
13800;BME280;6971;50.028;9.258;2023-05-01T12:59:45;99244.47;;;17.78;45.67
13800;BME280;6971;50.028;9.258;2023-05-01T13:04:48;99233.81;;;17.47;46.66
13800;BME280;6971;50.028;9.258;2023-05-01T13:09:56;99223.28;;;17.77;47.01
13800;BME280;6971;50.028;9.258;2023-05-01T13:14:58;99225.25;;;16.79;47.07
13800;BME280;6971;50.028;9.258;2023-05-01T13:20:03;99233.47;;;16.76;46.85
13800;BME280;6971;50.028;9.258;2023-05-01T13:25:14;99228.63;;;17.77;46.05
13800;BME280;6971;50.028;9.258;2023-05-01T13:30:16;99222.72;;;16.99;48.00
13800;BME280;6971;50.028;9.258;2023-05-01T13:35:22;99216.22;;;17.34;47.02
13800;BME280;6971;50.028;9.258;2023-05-01T13:40:24;99215.28;;;17.67;46.28
13800;BME280;6971;50.028;9.258;2023-05-01T13:45:25;99199.75;;;17.41;46.50
13800;BME280;6971;50.028;9.258;2023-05-01T13:50:26;99203.72;;;16.82;47.45
13800;BME280;6971;50.028;9.258;2023-05-01T13:55:26;99201.09;;;17.35;46.08
13800;BME280;6971;50.028;9.258;2023-05-01T14:00:27;99206.56;;;17.65;45.38
13800;BME280;6971;50.028;9.258;2023-05-01T14:05:28;99190.09;;;17.18;45.62
13800;BME280;6971;50.028;9.258;2023-05-01T14:10:28;99197.94;;;17.20;45.71
13800;BME280;6971;50.028;9.258;2023-05-01T14:15:28;99193.06;;;17.56;45.72
13800;BME280;6971;50.028;9.258;2023-05-01T14:20:29;99179.41;;;17.71;44.88
13800;BME280;6971;50.028;9.258;2023-05-01T14:25:30;99179.47;;;18.00;44.19
13800;BME280;6971;50.028;9.258;2023-05-01T14:30:34;99177.03;;;17.87;43.49
13800;BME280;6971;50.028;9.258;2023-05-01T14:35:46;99169.88;;;17.78;45.92
13800;BME280;6971;50.028;9.258;2023-05-01T14:40:48;99174.81;;;16.99;44.71
13800;BME280;6971;50.028;9.258;2023-05-01T14:45:48;99178.78;;;17.57;45.12
13800;BME280;6971;50.028;9.258;2023-05-01T14:50:49;99176.75;;;17.81;43.95
13800;BME280;6971;50.028;9.258;2023-05-01T14:55:51;99171.78;;;17.66;43.45
13800;BME280;6971;50.028;9.258;2023-05-01T15:00:53;99164.56;;;17.47;45.12
13800;BME280;6971;50.028;9.258;2023-05-01T15:05:53;99172.47;;;16.84;43.86
13800;BME280;6971;50.028;9.258;2023-05-01T15:10:54;99167.41;;;17.55;44.26
13800;BME280;6971;50.028;9.258;2023-05-01T15:15:54;99170.75;;;17.88;43.07
13800;BME280;6971;50.028;9.258;2023-05-01T15:20:57;99165.69;;;17.85;43.95
13800;BME280;6971;50.028;9.258;2023-05-01T15:25:58;99162.53;;;18.11;42.64
13800;BME280;6971;50.028;9.258;2023-05-01T15:30:59;99168.88;;;18.30;41.63
13800;BME280;6971;50.028;9.258;2023-05-01T15:36:01;99165.00;;;17.52;41.52
13800;BME280;6971;50.028;9.258;2023-05-01T15:41:01;99163.22;;;18.04;41.99
13800;BME280;6971;50.028;9.258;2023-05-01T15:46:01;99165.09;;;17.72;41.99
13800;BME280;6971;50.028;9.258;2023-05-01T15:51:02;99149.19;;;17.60;41.84
13800;BME280;6971;50.028;9.258;2023-05-01T15:56:03;99164.16;;;17.93;41.70
13800;BME280;6971;50.028;9.258;2023-05-01T16:01:04;99163.41;;;17.71;39.65
13800;BME280;6971;50.028;9.258;2023-05-01T16:06:04;99165.78;;;17.33;39.96
13800;BME280;6971;50.028;9.258;2023-05-01T16:11:05;99160.66;;;17.20;40.16
13800;BME280;6971;50.028;9.258;2023-05-01T16:16:08;99160.78;;;17.18;41.83
13800;BME280;6971;50.028;9.258;2023-05-01T16:21:10;99156.16;;;16.99;44.05
13800;BME280;6971;50.028;9.258;2023-05-01T16:26:17;99159.16;;;16.84;43.10
13800;BME280;6971;50.028;9.258;2023-05-01T16:31:18;99169.44;;;16.89;42.03
13800;BME280;6971;50.028;9.258;2023-05-01T16:36:18;99172.69;;;17.14;43.95
13800;BME280;6971;50.028;9.258;2023-05-01T16:41:19;99175.94;;;17.18;44.76
13800;BME280;6971;50.028;9.258;2023-05-01T16:46:19;99176.44;;;16.90;46.21
13800;BME280;6971;50.028;9.258;2023-05-01T16:51:20;99187.91;;;16.48;47.26
13800;BME280;6971;50.028;9.258;2023-05-01T16:56:20;99181.16;;;16.33;47.56
13800;BME280;6971;50.028;9.258;2023-05-01T17:01:21;99194.19;;;16.03;49.40
13800;BME280;6971;50.028;9.258;2023-05-01T17:06:21;99198.16;;;15.86;50.73
13800;BME280;6971;50.028;9.258;2023-05-01T17:11:21;99191.06;;;15.75;50.95
13800;BME280;6971;50.028;9.258;2023-05-01T17:16:23;99194.09;;;15.59;51.82
13800;BME280;6971;50.028;9.258;2023-05-01T17:21:25;99195.75;;;15.25;59.26
13800;BME280;6971;50.028;9.258;2023-05-01T17:26:26;99200.88;;;14.93;61.57
13800;BME280;6971;50.028;9.258;2023-05-01T17:31:26;99203.09;;;14.74;66.03
13800;BME280;6971;50.028;9.258;2023-05-01T17:36:26;99199.91;;;14.33;69.25
13800;BME280;6971;50.028;9.258;2023-05-01T17:41:30;99203.66;;;13.93;70.72
13800;BME280;6971;50.028;9.258;2023-05-01T17:46:30;99202.44;;;13.47;72.69
13800;BME280;6971;50.028;9.258;2023-05-01T17:51:31;99201.69;;;13.19;75.14
13800;BME280;6971;50.028;9.258;2023-05-01T17:56:32;99213.63;;;12.86;77.38
13800;BME280;6971;50.028;9.258;2023-05-01T18:01:32;99213.63;;;12.45;79.95
13800;BME280;6971;50.028;9.258;2023-05-01T18:06:33;99215.19;;;12.20;83.66
13800;BME280;6971;50.028;9.258;2023-05-01T18:11:34;99213.16;;;11.96;86.77
13800;BME280;6971;50.028;9.258;2023-05-01T18:16:34;99217.97;;;11.75;86.88
13800;BME280;6971;50.028;9.258;2023-05-01T18:21:35;99228.16;;;11.52;89.42
13800;BME280;6971;50.028;9.258;2023-05-01T18:26:35;99232.31;;;11.42;88.68
13800;BME280;6971;50.028;9.258;2023-05-01T18:31:35;99235.44;;;11.03;92.54
13800;BME280;6971;50.028;9.258;2023-05-01T18:36:37;99251.56;;;10.82;93.71
13800;BME280;6971;50.028;9.258;2023-05-01T18:41:37;99244.06;;;10.60;94.86
13800;BME280;6971;50.028;9.258;2023-05-01T18:46:37;99244.22;;;10.41;96.28
13800;BME280;6971;50.028;9.258;2023-05-01T18:51:38;99251.63;;;10.18;97.85
13800;BME280;6971;50.028;9.258;2023-05-01T18:56:38;99257.72;;;10.02;100.00
13800;BME280;6971;50.028;9.258;2023-05-01T19:01:39;99273.00;;;9.79;100.00
13800;BME280;6971;50.028;9.258;2023-05-01T19:06:39;99278.22;;;9.63;100.00
13800;BME280;6971;50.028;9.258;2023-05-01T19:11:39;99275.94;;;9.39;100.00
13800;BME280;6971;50.028;9.258;2023-05-01T19:16:40;99286.09;;;9.30;100.00
13800;BME280;6971;50.028;9.258;2023-05-01T19:21:40;99291.03;;;9.18;100.00
13800;BME280;6971;50.028;9.258;2023-05-01T19:26:41;99287.56;;;9.00;100.00
13800;BME280;6971;50.028;9.258;2023-05-01T19:31:41;99296.59;;;9.12;100.00
13800;BME280;6971;50.028;9.258;2023-05-01T19:36:41;99303.53;;;8.95;100.00
13800;BME280;6971;50.028;9.258;2023-05-01T19:41:42;99306.16;;;8.78;100.00
13800;BME280;6971;50.028;9.258;2023-05-01T19:46:44;99311.72;;;8.71;100.00
13800;BME280;6971;50.028;9.258;2023-05-01T19:51:44;99314.66;;;8.65;100.00
13800;BME280;6971;50.028;9.258;2023-05-01T19:56:45;99318.16;;;8.64;100.00
13800;BME280;6971;50.028;9.258;2023-05-01T20:01:49;99322.72;;;8.60;100.00
13800;BME280;6971;50.028;9.258;2023-05-01T20:06:49;99334.09;;;8.61;100.00
13800;BME280;6971;50.028;9.258;2023-05-01T20:11:50;99333.44;;;8.56;100.00
13800;BME280;6971;50.028;9.258;2023-05-01T20:16:51;99332.84;;;8.49;100.00
13800;BME280;6971;50.028;9.258;2023-05-01T20:21:52;99343.94;;;8.56;100.00
13800;BME280;6971;50.028;9.258;2023-05-01T20:26:52;99343.94;;;8.56;100.00
13800;BME280;6971;50.028;9.258;2023-05-01T20:31:54;99341.47;;;8.72;100.00
13800;BME280;6971;50.028;9.258;2023-05-01T20:36:55;99360.88;;;8.87;100.00
13800;BME280;6971;50.028;9.258;2023-05-01T20:41:56;99372.31;;;8.86;100.00
13800;BME280;6971;50.028;9.258;2023-05-01T20:46:58;99377.63;;;9.04;100.00
13800;BME280;6971;50.028;9.258;2023-05-01T20:51:58;99371.09;;;9.30;100.00
13800;BME280;6971;50.028;9.258;2023-05-01T20:56:59;99382.31;;;9.34;100.00
13800;BME280;6971;50.028;9.258;2023-05-01T21:02:04;99377.44;;;9.44;100.00
13800;BME280;6971;50.028;9.258;2023-05-01T21:07:04;99380.69;;;9.66;100.00
13800;BME280;6971;50.028;9.258;2023-05-01T21:12:05;99380.91;;;9.44;100.00
13800;BME280;6971;50.028;9.258;2023-05-01T21:17:07;99389.59;;;9.64;100.00
13800;BME280;6971;50.028;9.258;2023-05-01T21:22:17;99379.69;;;9.51;100.00
13800;BME280;6971;50.028;9.258;2023-05-01T21:27:20;99387.72;;;9.31;100.00
13800;BME280;6971;50.028;9.258;2023-05-01T21:32:29;99394.25;;;9.41;100.00
13800;BME280;6971;50.028;9.258;2023-05-01T21:37:31;99399.50;;;9.41;100.00
13800;BME280;6971;50.028;9.258;2023-05-01T21:42:35;99400.69;;;9.16;100.00
13800;BME280;6971;50.028;9.258;2023-05-01T21:47:46;99406.03;;;9.14;100.00
13800;BME280;6971;50.028;9.258;2023-05-01T21:52:48;99410.69;;;8.71;100.00
13800;BME280;6971;50.028;9.258;2023-05-01T21:57:51;99423.19;;;8.85;100.00
13800;BME280;6971;50.028;9.258;2023-05-01T22:02:52;99423.75;;;8.53;100.00
13800;BME280;6971;50.028;9.258;2023-05-01T22:07:52;99427.25;;;8.33;100.00
13800;BME280;6971;50.028;9.258;2023-05-01T22:12:53;99415.47;;;8.22;100.00
13800;BME280;6971;50.028;9.258;2023-05-01T22:17:54;99415.13;;;8.09;100.00
13800;BME280;6971;50.028;9.258;2023-05-01T22:22:55;99424.16;;;8.04;100.00
13800;BME280;6971;50.028;9.258;2023-05-01T22:27:56;99424.16;;;8.04;100.00
13800;BME280;6971;50.028;9.258;2023-05-01T22:32:56;99426.44;;;7.91;100.00
13800;BME280;6971;50.028;9.258;2023-05-01T22:37:57;99430.78;;;7.71;100.00
13800;BME280;6971;50.028;9.258;2023-05-01T22:42:57;99434.94;;;7.54;100.00
13800;BME280;6971;50.028;9.258;2023-05-01T22:47:57;99442.38;;;7.65;100.00
13800;BME280;6971;50.028;9.258;2023-05-01T22:53:00;99444.66;;;7.52;100.00
13800;BME280;6971;50.028;9.258;2023-05-01T22:58:00;99447.47;;;7.48;100.00
13800;BME280;6971;50.028;9.258;2023-05-01T23:03:01;99452.28;;;7.14;100.00
13800;BME280;6971;50.028;9.258;2023-05-01T23:08:01;99452.97;;;7.19;100.00
13800;BME280;6971;50.028;9.258;2023-05-01T23:13:02;99447.09;;;7.12;100.00
13800;BME280;6971;50.028;9.258;2023-05-01T23:18:02;99454.66;;;6.98;100.00
13800;BME280;6971;50.028;9.258;2023-05-01T23:23:04;99461.56;;;7.00;100.00
13800;BME280;6971;50.028;9.258;2023-05-01T23:28:08;99462.84;;;7.12;100.00
13800;BME280;6971;50.028;9.258;2023-05-01T23:33:09;99458.31;;;7.16;100.00
13800;BME280;6971;50.028;9.258;2023-05-01T23:38:10;99463.34;;;7.22;100.00
13800;BME280;6971;50.028;9.258;2023-05-01T23:43:12;99464.13;;;7.24;100.00
13800;BME280;6971;50.028;9.258;2023-05-01T23:48:14;99463.75;;;7.34;100.00
13800;BME280;6971;50.028;9.258;2023-05-01T23:53:14;99456.81;;;7.32;100.00
13800;BME280;6971;50.028;9.258;2023-05-01T23:58:14;99464.44;;;7.39;100.00
